createdAt,value
2017-07-18T00:00:16.405Z,0
2017-07-18T00:00:56.982Z,0
2017-07-18T00:01:37.582Z,0
2017-07-18T00:02:18.221Z,0
2017-07-18T00:02:58.773Z,0
2017-07-18T00:03:39.333Z,0
2017-07-18T00:04:19.905Z,0
2017-07-18T00:05:00.501Z,0
2017-07-18T00:05:41.085Z,0
2017-07-18T00:06:21.750Z,0
2017-07-18T00:07:02.356Z,0
2017-07-18T00:07:42.946Z,0
2017-07-18T00:08:23.525Z,0
2017-07-18T00:09:04.121Z,0
2017-07-18T00:09:44.691Z,0
2017-07-18T00:10:25.263Z,0
2017-07-18T00:11:05.843Z,0
2017-07-18T00:11:46.437Z,0
2017-07-18T00:12:27.044Z,0
2017-07-18T00:13:07.652Z,0
2017-07-18T00:13:48.227Z,0
2017-07-18T00:14:28.798Z,0
2017-07-18T00:15:09.375Z,0
2017-07-18T00:15:49.997Z,0
2017-07-18T00:16:30.580Z,0
2017-07-18T00:17:14.277Z,0
2017-07-18T00:17:55.463Z,0
2017-07-18T00:18:36.049Z,0
2017-07-18T00:19:16.626Z,0
2017-07-18T00:19:57.203Z,0
2017-07-18T00:20:37.862Z,0
2017-07-18T00:21:18.449Z,0
2017-07-18T00:21:59.027Z,0
2017-07-18T00:22:39.626Z,0
2017-07-18T00:23:20.210Z,0
2017-07-18T00:24:00.785Z,0
2017-07-18T00:24:41.341Z,0
2017-07-18T00:25:21.909Z,0
2017-07-18T00:26:02.475Z,0
2017-07-18T00:26:43.077Z,0
2017-07-18T00:27:23.689Z,0
2017-07-18T00:28:04.254Z,0
2017-07-18T00:28:44.825Z,0
2017-07-18T00:29:25.379Z,0
2017-07-18T00:30:05.939Z,0
2017-07-18T00:30:46.501Z,0
2017-07-18T00:31:27.071Z,0
2017-07-18T00:32:07.681Z,0
2017-07-18T00:32:48.270Z,0
2017-07-18T00:33:28.846Z,0
2017-07-18T00:34:09.436Z,0
2017-07-18T00:34:49.992Z,0
2017-07-18T00:35:30.573Z,0
2017-07-18T00:36:11.189Z,0
2017-07-18T00:36:51.767Z,0
2017-07-18T00:37:32.353Z,0
2017-07-18T00:38:12.941Z,0
2017-07-18T00:38:53.512Z,0
2017-07-18T00:39:34.082Z,0
2017-07-18T00:40:14.749Z,0
2017-07-18T00:40:55.303Z,0
2017-07-18T00:41:35.917Z,0
2017-07-18T00:42:16.479Z,0
2017-07-18T00:42:57.077Z,0
2017-07-18T00:43:37.649Z,0
2017-07-18T00:44:18.217Z,0
2017-07-18T00:44:58.806Z,0
2017-07-18T00:45:39.406Z,0
2017-07-18T00:46:20.009Z,0
2017-07-18T00:47:00.599Z,0
2017-07-18T00:47:41.223Z,0
2017-07-18T00:48:21.806Z,0
2017-07-18T00:49:02.376Z,0
2017-07-18T00:49:42.964Z,0
2017-07-18T00:50:23.576Z,0
2017-07-18T00:51:04.161Z,0
2017-07-18T00:51:44.731Z,0
2017-07-18T00:52:25.299Z,0
2017-07-18T00:53:05.861Z,0
2017-07-18T00:53:46.426Z,0
2017-07-18T00:54:27.010Z,0
2017-07-18T00:55:07.585Z,0
2017-07-18T00:55:48.174Z,0
2017-07-18T00:56:28.767Z,0
2017-07-18T00:57:09.346Z,0
2017-07-18T00:57:49.925Z,0
2017-07-18T00:58:30.499Z,0
2017-07-18T00:59:11.060Z,0
2017-07-18T00:59:51.641Z,0
2017-07-18T01:00:32.232Z,0
2017-07-18T01:01:12.809Z,0
2017-07-18T01:01:53.405Z,0
2017-07-18T01:02:33.989Z,0
2017-07-18T01:03:14.564Z,0
2017-07-18T01:03:55.149Z,0
2017-07-18T01:04:35.731Z,0
2017-07-18T01:05:16.319Z,0
2017-07-18T01:05:56.902Z,0
2017-07-18T01:06:37.482Z,0
2017-07-18T01:07:18.079Z,0
2017-07-18T01:07:58.646Z,0
2017-07-18T01:08:39.250Z,0
2017-07-18T01:09:19.819Z,0
2017-07-18T01:10:00.449Z,0
2017-07-18T01:10:41.067Z,0
2017-07-18T01:11:21.674Z,0
2017-07-18T01:12:02.257Z,0
2017-07-18T01:12:42.818Z,0
2017-07-18T01:13:23.389Z,0
2017-07-18T01:14:03.992Z,0
2017-07-18T01:14:44.562Z,0
2017-07-18T01:15:25.144Z,0
2017-07-18T01:16:05.720Z,0
2017-07-18T01:16:46.299Z,0
2017-07-18T01:17:26.950Z,0
2017-07-18T01:18:07.570Z,0
2017-07-18T01:18:48.123Z,0
2017-07-18T01:19:28.709Z,0
2017-07-18T01:20:09.289Z,0
2017-07-18T01:20:49.876Z,0
2017-07-18T01:21:30.440Z,0
2017-07-18T01:22:11.035Z,0
2017-07-18T01:22:51.636Z,0
2017-07-18T01:23:32.205Z,0
2017-07-18T01:24:12.804Z,0
2017-07-18T01:24:53.407Z,0
2017-07-18T01:25:33.984Z,0
2017-07-18T01:26:14.580Z,0
2017-07-18T01:26:55.162Z,0
2017-07-18T01:27:35.731Z,0
2017-07-18T01:28:16.324Z,0
2017-07-18T01:28:56.908Z,0
2017-07-18T01:29:37.476Z,0
2017-07-18T01:30:18.067Z,0
2017-07-18T01:30:58.659Z,0
2017-07-18T01:31:39.262Z,0
2017-07-18T01:32:19.828Z,0
2017-07-18T01:33:00.396Z,0
2017-07-18T01:33:40.965Z,0
2017-07-18T01:34:21.528Z,0
2017-07-18T01:35:02.096Z,0
2017-07-18T01:35:42.693Z,0
2017-07-18T01:36:23.258Z,0
2017-07-18T01:37:03.838Z,0
2017-07-18T01:37:44.414Z,0
2017-07-18T01:38:24.974Z,0
2017-07-18T01:39:05.553Z,0
2017-07-18T01:39:46.143Z,0
2017-07-18T01:40:26.724Z,0
2017-07-18T01:41:07.316Z,0
2017-07-18T01:41:47.909Z,0
2017-07-18T01:42:28.483Z,0
2017-07-18T01:43:09.064Z,0
2017-07-18T01:43:49.647Z,0
2017-07-18T01:44:30.234Z,0
2017-07-18T01:45:10.813Z,0
2017-07-18T01:45:51.392Z,0
2017-07-18T01:46:31.961Z,0
2017-07-18T01:47:12.567Z,0
2017-07-18T01:47:53.126Z,0
2017-07-18T01:48:33.700Z,0
2017-07-18T01:49:14.272Z,0
2017-07-18T01:49:54.866Z,0
2017-07-18T01:50:35.431Z,0
2017-07-18T01:51:16.000Z,0
2017-07-18T01:51:56.577Z,0
2017-07-18T01:52:37.183Z,0
2017-07-18T01:53:17.753Z,0
2017-07-18T01:53:58.312Z,0
2017-07-18T01:54:38.897Z,0
2017-07-18T01:55:19.457Z,0
2017-07-18T01:56:00.025Z,0
2017-07-18T01:56:40.597Z,0
2017-07-18T01:57:21.175Z,0
2017-07-18T01:58:01.751Z,0
2017-07-18T01:58:42.328Z,0
2017-07-18T01:59:22.908Z,0
2017-07-18T02:00:03.487Z,0
2017-07-18T02:00:44.085Z,0
2017-07-18T02:01:24.671Z,0
2017-07-18T02:02:05.261Z,0
2017-07-18T02:02:45.856Z,0
2017-07-18T02:03:26.448Z,0
2017-07-18T02:04:07.013Z,0
2017-07-18T02:04:47.598Z,0
2017-07-18T02:05:28.177Z,0
2017-07-18T02:06:08.745Z,0
2017-07-18T02:06:49.341Z,0
2017-07-18T02:07:29.917Z,0
2017-07-18T02:08:10.501Z,0
2017-07-18T02:08:51.083Z,0
2017-07-18T02:09:31.659Z,0
2017-07-18T02:10:12.292Z,0
2017-07-18T02:10:52.873Z,0
2017-07-18T02:11:33.478Z,0
2017-07-18T02:12:14.072Z,0
2017-07-18T02:12:54.678Z,0
2017-07-18T02:13:35.263Z,0
2017-07-18T02:14:15.848Z,0
2017-07-18T02:14:56.420Z,0
2017-07-18T02:15:36.990Z,0
2017-07-18T02:16:17.561Z,0
2017-07-18T02:16:58.142Z,0
2017-07-18T02:17:38.726Z,0
2017-07-18T02:18:19.334Z,0
2017-07-18T02:18:59.952Z,0
2017-07-18T02:19:40.539Z,0
2017-07-18T02:20:21.113Z,0
2017-07-18T02:21:01.703Z,0
2017-07-18T02:21:42.262Z,0
2017-07-18T02:22:22.845Z,0
2017-07-18T02:23:03.453Z,0
2017-07-18T02:23:44.028Z,0
2017-07-18T02:24:24.598Z,0
2017-07-18T02:25:05.183Z,0
2017-07-18T02:25:45.773Z,0
2017-07-18T02:26:26.392Z,4
2017-07-18T02:27:06.988Z,4
2017-07-18T02:27:47.556Z,4
2017-07-18T02:28:28.127Z,4
2017-07-18T02:29:08.695Z,0
2017-07-18T02:29:49.270Z,0
2017-07-18T02:30:29.888Z,0
2017-07-18T02:31:10.510Z,4
2017-07-18T02:31:51.084Z,4
2017-07-18T02:32:31.671Z,4
2017-07-18T02:33:12.245Z,4
2017-07-18T02:33:52.818Z,4
2017-07-18T02:34:33.387Z,4
2017-07-18T02:35:13.970Z,4
2017-07-18T02:35:54.546Z,8
2017-07-18T02:36:35.116Z,4
2017-07-18T02:37:15.714Z,4
2017-07-18T02:37:56.285Z,8
2017-07-18T02:38:36.855Z,4
2017-07-18T02:39:17.434Z,8
2017-07-18T02:39:58.021Z,8
2017-07-18T02:40:38.587Z,8
2017-07-18T02:41:19.177Z,8
2017-07-18T02:41:59.740Z,8
2017-07-18T02:42:40.327Z,12
2017-07-18T02:43:20.914Z,8
2017-07-18T02:44:01.524Z,12
2017-07-18T02:44:42.140Z,12
2017-07-18T02:45:22.696Z,16
2017-07-18T02:46:03.280Z,16
2017-07-18T02:46:43.860Z,16
2017-07-18T02:47:24.438Z,16
2017-07-18T02:48:05.013Z,20
2017-07-18T02:48:45.585Z,20
2017-07-18T02:49:26.155Z,24
2017-07-18T02:50:06.729Z,24
2017-07-18T02:50:47.294Z,24
2017-07-18T02:51:27.869Z,28
2017-07-18T02:52:08.478Z,28
2017-07-18T02:52:49.070Z,32
2017-07-18T02:53:29.622Z,32
2017-07-18T02:54:10.200Z,36
2017-07-18T02:54:50.783Z,40
2017-07-18T02:55:31.374Z,40
2017-07-18T02:56:11.965Z,40
2017-07-18T02:56:52.526Z,48
2017-07-18T02:57:33.098Z,48
2017-07-18T02:58:13.672Z,52
2017-07-18T02:58:54.241Z,56
2017-07-18T02:59:34.822Z,56
2017-07-18T03:00:15.408Z,60
2017-07-18T03:00:56.006Z,64
2017-07-18T03:01:36.598Z,68
2017-07-18T03:02:17.157Z,72
2017-07-18T03:02:57.723Z,76
2017-07-18T03:03:38.327Z,80
2017-07-18T03:04:18.897Z,88
2017-07-18T03:04:59.478Z,92
2017-07-18T03:05:40.090Z,96
2017-07-18T03:06:20.698Z,104
2017-07-18T03:07:01.281Z,108
2017-07-18T03:07:41.875Z,112
2017-07-18T03:08:22.439Z,116
2017-07-18T03:09:03.036Z,124
2017-07-18T03:09:43.639Z,132
2017-07-18T03:10:24.200Z,140
2017-07-18T03:11:04.803Z,144
2017-07-18T03:11:45.386Z,152
2017-07-18T03:12:25.968Z,160
2017-07-18T03:13:06.544Z,168
2017-07-18T03:13:47.126Z,172
2017-07-18T03:14:27.692Z,180
2017-07-18T03:15:08.311Z,192
2017-07-18T03:15:48.890Z,200
2017-07-18T03:16:29.477Z,208
2017-07-18T03:17:10.058Z,220
2017-07-18T03:17:50.619Z,228
2017-07-18T03:18:31.213Z,236
2017-07-18T03:19:11.781Z,248
2017-07-18T03:19:52.356Z,256
2017-07-18T03:20:32.925Z,268
2017-07-18T03:21:13.528Z,276
2017-07-18T03:21:54.116Z,292
2017-07-18T03:22:34.696Z,300
2017-07-18T03:23:15.274Z,308
2017-07-18T03:23:55.855Z,320
2017-07-18T03:24:36.423Z,332
2017-07-18T03:25:17.042Z,344
2017-07-18T03:25:57.622Z,356
2017-07-18T03:26:38.207Z,368
2017-07-18T03:27:18.790Z,380
2017-07-18T03:27:59.373Z,396
2017-07-18T03:28:39.921Z,408
2017-07-18T03:29:20.494Z,424
2017-07-18T03:30:01.077Z,432
2017-07-18T03:30:41.684Z,444
2017-07-18T03:31:22.288Z,460
2017-07-18T03:32:02.859Z,476
2017-07-18T03:32:43.431Z,488
2017-07-18T03:33:24.023Z,504
2017-07-18T03:34:04.583Z,516
2017-07-18T03:34:45.162Z,532
2017-07-18T03:35:25.738Z,540
2017-07-18T03:36:06.314Z,556
2017-07-18T03:36:46.918Z,572
2017-07-18T03:37:27.487Z,588
2017-07-18T03:38:08.043Z,604
2017-07-18T03:38:48.653Z,620
2017-07-18T03:39:29.227Z,632
2017-07-18T03:40:09.810Z,648
2017-07-18T03:40:50.376Z,660
2017-07-18T03:41:30.952Z,676
2017-07-18T03:42:11.571Z,692
2017-07-18T03:42:52.163Z,704
2017-07-18T03:43:32.767Z,720
2017-07-18T03:44:13.343Z,736
2017-07-18T03:44:53.908Z,748
2017-07-18T03:45:34.494Z,764
2017-07-18T03:46:15.064Z,776
2017-07-18T03:46:55.649Z,796
2017-07-18T03:47:36.220Z,812
2017-07-18T03:48:16.823Z,824
2017-07-18T03:48:57.395Z,840
2017-07-18T03:49:37.991Z,856
2017-07-18T03:50:18.571Z,872
2017-07-18T03:50:59.135Z,888
2017-07-18T03:51:39.728Z,904
2017-07-18T03:52:20.325Z,920
2017-07-18T03:53:00.901Z,936
2017-07-18T03:53:41.486Z,952
2017-07-18T03:54:22.075Z,968
2017-07-18T03:55:02.673Z,984
2017-07-18T03:55:43.436Z,1000
2017-07-18T03:56:24.029Z,1012
2017-07-18T03:57:04.595Z,1032
2017-07-18T03:57:45.186Z,1044
2017-07-18T03:58:25.784Z,1060
2017-07-18T03:59:06.487Z,1076
2017-07-18T03:59:47.107Z,1092
2017-07-18T04:00:27.698Z,1104
2017-07-18T04:01:08.274Z,1120
2017-07-18T04:01:48.862Z,1136
2017-07-18T04:02:29.433Z,1152
2017-07-18T04:03:10.008Z,1168
2017-07-18T04:03:50.575Z,1184
2017-07-18T04:04:31.173Z,1200
2017-07-18T04:05:11.745Z,1220
2017-07-18T04:05:52.320Z,1236
2017-07-18T04:06:32.928Z,1252
2017-07-18T04:07:13.507Z,1264
2017-07-18T04:07:54.076Z,1284
2017-07-18T04:08:34.673Z,1300
2017-07-18T04:09:15.258Z,1316
2017-07-18T04:09:55.835Z,1332
2017-07-18T04:10:36.442Z,1352
2017-07-18T04:11:17.001Z,1364
2017-07-18T04:11:57.630Z,1380
2017-07-18T04:12:38.194Z,1396
2017-07-18T04:13:18.766Z,1412
2017-07-18T04:13:59.382Z,1424
2017-07-18T04:14:39.949Z,1436
2017-07-18T04:15:20.526Z,1452
2017-07-18T04:16:01.095Z,1464
2017-07-18T04:16:41.688Z,1480
2017-07-18T04:17:22.272Z,1492
2017-07-18T04:18:03.052Z,1508
2017-07-18T04:18:43.647Z,1524
2017-07-18T04:19:24.237Z,1536
2017-07-18T04:20:04.838Z,1548
2017-07-18T04:20:45.423Z,1564
2017-07-18T04:21:26.000Z,1576
2017-07-18T04:22:06.590Z,1592
2017-07-18T04:22:47.265Z,1604
2017-07-18T04:23:27.832Z,1620
2017-07-18T04:24:08.421Z,1632
2017-07-18T04:24:48.998Z,1648
2017-07-18T04:25:29.611Z,1660
2017-07-18T04:26:10.203Z,1672
2017-07-18T04:26:50.775Z,1692
2017-07-18T04:27:31.338Z,1704
2017-07-18T04:28:11.923Z,1720
2017-07-18T04:28:52.499Z,1732
2017-07-18T04:29:33.091Z,1748
2017-07-18T04:30:13.675Z,1764
2017-07-18T04:30:54.247Z,1780
2017-07-18T04:31:34.822Z,1796
2017-07-18T04:32:15.387Z,1808
2017-07-18T04:32:55.963Z,1824
2017-07-18T04:33:36.569Z,1840
2017-07-18T04:34:17.182Z,1860
2017-07-18T04:34:57.775Z,1880
2017-07-18T04:35:38.345Z,1904
2017-07-18T04:36:18.925Z,1920
2017-07-18T04:36:59.534Z,1940
2017-07-18T04:37:40.122Z,1960
2017-07-18T04:38:20.732Z,1976
2017-07-18T04:39:01.349Z,1992
2017-07-18T04:39:41.942Z,2012
2017-07-18T04:40:22.548Z,2032
2017-07-18T04:41:03.135Z,2044
2017-07-18T04:41:43.739Z,2064
2017-07-18T04:42:24.340Z,2076
2017-07-18T04:43:04.915Z,2092
2017-07-18T04:43:45.483Z,2104
2017-07-18T04:44:26.059Z,2120
2017-07-18T04:45:06.649Z,2136
2017-07-18T04:45:47.218Z,2152
2017-07-18T04:46:27.925Z,2168
2017-07-18T04:47:08.568Z,2180
2017-07-18T04:47:49.155Z,2200
2017-07-18T04:48:29.725Z,2212
2017-07-18T04:49:10.297Z,2228
2017-07-18T04:49:50.878Z,2244
2017-07-18T04:50:31.463Z,2260
2017-07-18T04:51:12.045Z,2280
2017-07-18T04:51:52.629Z,2300
2017-07-18T04:52:33.200Z,2316
2017-07-18T04:53:13.774Z,2336
2017-07-18T04:53:54.338Z,2352
2017-07-18T04:54:34.930Z,2376
2017-07-18T04:55:15.522Z,2396
2017-07-18T04:55:56.101Z,2416
2017-07-18T04:56:36.680Z,2436
2017-07-18T04:57:17.260Z,2460
2017-07-18T04:57:57.859Z,2476
2017-07-18T04:58:38.485Z,2496
2017-07-18T04:59:19.907Z,2516
2017-07-18T05:00:00.502Z,2540
2017-07-18T05:00:41.064Z,2560
2017-07-18T05:01:21.654Z,2584
2017-07-18T05:02:02.244Z,2608
2017-07-18T05:02:42.823Z,2632
2017-07-18T05:03:23.417Z,2668
2017-07-18T05:04:03.991Z,2696
2017-07-18T05:04:44.593Z,2724
2017-07-18T05:05:25.164Z,2752
2017-07-18T05:06:05.759Z,2780
2017-07-18T05:06:46.352Z,2804
2017-07-18T05:07:26.927Z,2824
2017-07-18T05:08:07.514Z,2844
2017-07-18T05:08:48.097Z,2864
2017-07-18T05:09:28.676Z,2884
2017-07-18T05:10:09.258Z,2904
2017-07-18T05:10:49.835Z,2924
2017-07-18T05:11:30.424Z,2956
2017-07-18T05:12:11.023Z,2988
2017-07-18T05:12:51.595Z,3024
2017-07-18T05:13:32.191Z,3064
2017-07-18T05:14:12.794Z,3100
2017-07-18T05:14:53.380Z,3136
2017-07-18T05:15:33.975Z,3176
2017-07-18T05:16:14.555Z,3212
2017-07-18T05:16:55.160Z,3256
2017-07-18T05:17:35.755Z,3292
2017-07-18T05:18:16.328Z,3324
2017-07-18T05:18:56.906Z,3352
2017-07-18T05:19:37.485Z,3376
2017-07-18T05:20:18.095Z,3396
2017-07-18T05:20:58.676Z,3424
2017-07-18T05:21:39.266Z,3452
2017-07-18T05:22:19.843Z,3488
2017-07-18T05:23:00.445Z,3528
2017-07-18T05:23:41.028Z,3564
2017-07-18T05:24:21.596Z,3600
2017-07-18T05:25:02.177Z,3624
2017-07-18T05:25:42.790Z,3656
2017-07-18T05:26:23.386Z,3684
2017-07-18T05:27:03.993Z,3724
2017-07-18T05:27:44.597Z,3756
2017-07-18T05:28:25.182Z,3800
2017-07-18T05:29:05.801Z,3856
2017-07-18T05:29:46.399Z,3916
2017-07-18T05:30:27.008Z,3984
2017-07-18T05:31:07.589Z,4056
2017-07-18T05:31:48.205Z,4136
2017-07-18T05:32:28.755Z,4220
2017-07-18T05:33:09.334Z,4308
2017-07-18T05:33:49.931Z,4396
2017-07-18T05:34:30.520Z,4448
2017-07-18T05:35:11.105Z,4540
2017-07-18T05:35:51.685Z,8760
2017-07-18T05:36:32.362Z,32928
2017-07-18T05:37:12.858Z,61792
2017-07-18T05:37:53.424Z,80576
2017-07-18T05:38:34.026Z,79552
2017-07-18T05:39:14.672Z,78464
2017-07-18T05:39:55.267Z,79168
2017-07-18T05:40:35.971Z,79904
2017-07-18T05:41:16.470Z,79872
2017-07-18T05:41:57.051Z,80416
2017-07-18T05:42:37.636Z,79488
2017-07-18T05:43:18.225Z,78848
2017-07-18T05:43:58.789Z,78752
2017-07-18T05:44:39.380Z,79808
2017-07-18T05:45:19.956Z,79936
2017-07-18T05:46:00.584Z,79520
2017-07-18T05:46:41.158Z,78240
2017-07-18T05:47:21.737Z,78720
2017-07-18T05:48:02.348Z,77632
2017-07-18T05:48:43.386Z,78304
2017-07-18T05:49:24.158Z,78624
2017-07-18T05:50:05.096Z,80384
2017-07-18T05:50:46.104Z,80448
2017-07-18T05:51:27.390Z,81152
2017-07-18T05:52:07.965Z,80384
2017-07-18T05:52:48.547Z,79776
2017-07-18T05:53:29.133Z,79584
2017-07-18T05:54:09.734Z,79616
2017-07-18T05:54:50.359Z,80096
2017-07-18T05:55:30.971Z,80736
2017-07-18T05:56:11.736Z,80640
2017-07-18T05:56:52.334Z,81824
2017-07-18T05:57:32.913Z,83232
2017-07-18T05:58:14.287Z,83264
2017-07-18T05:58:54.865Z,83072
2017-07-18T05:59:35.440Z,82272
2017-07-18T06:00:16.063Z,81728
2017-07-18T06:00:56.664Z,81440
2017-07-18T06:01:37.379Z,83136
2017-07-18T06:02:17.967Z,85248
2017-07-18T06:02:58.563Z,84928
2017-07-18T06:03:39.299Z,84576
2017-07-18T06:04:19.892Z,85600
2017-07-18T06:05:00.463Z,87008
2017-07-18T06:05:41.316Z,89184
2017-07-18T06:06:21.932Z,88544
2017-07-18T06:07:03.036Z,87104
2017-07-18T06:07:43.754Z,87072
2017-07-18T06:08:24.292Z,88448
2017-07-18T06:09:04.960Z,88640
2017-07-18T06:09:45.638Z,87552
2017-07-18T06:10:26.244Z,86784
2017-07-18T06:11:06.859Z,89472
2017-07-18T06:11:47.442Z,91808
2017-07-18T06:12:28.248Z,93312
2017-07-18T06:13:08.952Z,92800
2017-07-18T06:13:49.460Z,90816
2017-07-18T06:14:30.056Z,87776
2017-07-18T06:15:10.644Z,83616
2017-07-18T06:15:51.266Z,80768
2017-07-18T06:16:31.846Z,81536
2017-07-18T06:17:12.432Z,84672
2017-07-18T06:17:53.260Z,87232
2017-07-18T06:18:33.947Z,86880
2017-07-18T06:19:14.521Z,85024
2017-07-18T06:19:55.806Z,82432
2017-07-18T06:20:36.491Z,81056
2017-07-18T06:21:17.119Z,80672
2017-07-18T06:21:57.866Z,80352
2017-07-18T06:22:38.507Z,79264
2017-07-18T06:23:19.084Z,75968
2017-07-18T06:23:59.673Z,72128
2017-07-18T06:24:40.361Z,71296
2017-07-18T06:25:21.134Z,75168
2017-07-18T06:26:01.607Z,81152
2017-07-18T06:26:42.319Z,85664
2017-07-18T06:27:23.317Z,86880
2017-07-18T06:28:03.929Z,85472
2017-07-18T06:28:44.527Z,85120
2017-07-18T06:29:25.114Z,84960
2017-07-18T06:30:05.691Z,85376
2017-07-18T06:30:46.269Z,84352
2017-07-18T06:31:26.861Z,84608
2017-07-18T06:32:07.443Z,86944
2017-07-18T06:32:48.028Z,87520
2017-07-18T06:33:28.610Z,84992
2017-07-18T06:34:09.195Z,80576
2017-07-18T06:34:49.793Z,77280
2017-07-18T06:35:30.381Z,75328
2017-07-18T06:36:10.989Z,73760
2017-07-18T06:36:51.576Z,72608
2017-07-18T06:37:32.167Z,73632
2017-07-18T06:38:12.756Z,77824
2017-07-18T06:38:53.357Z,81760
2017-07-18T06:39:33.944Z,81088
2017-07-18T06:40:14.535Z,76704
2017-07-18T06:40:55.173Z,75744
2017-07-18T06:41:35.800Z,79104
2017-07-18T06:42:16.397Z,84320
2017-07-18T06:42:57.016Z,85952
2017-07-18T06:43:37.617Z,85376
2017-07-18T06:44:18.206Z,83136
2017-07-18T06:44:58.818Z,81376
2017-07-18T06:45:39.415Z,80480
2017-07-18T06:46:20.019Z,82112
2017-07-18T06:47:00.592Z,83040
2017-07-18T06:47:41.200Z,83904
2017-07-18T06:48:22.040Z,84224
2017-07-18T06:49:02.720Z,84864
2017-07-18T06:49:43.326Z,83520
2017-07-18T06:50:23.917Z,83008
2017-07-18T06:51:04.502Z,82880
2017-07-18T06:51:45.078Z,82496
2017-07-18T06:52:25.726Z,81760
2017-07-18T06:53:06.360Z,82624
2017-07-18T06:53:46.965Z,84000
2017-07-18T06:54:27.594Z,84480
2017-07-18T06:55:08.171Z,85344
2017-07-18T06:55:48.741Z,83840
2017-07-18T06:56:29.343Z,81952
2017-07-18T06:57:09.917Z,76864
2017-07-18T06:57:50.577Z,74880
2017-07-18T06:58:31.123Z,75968
2017-07-18T06:59:11.816Z,80448
2017-07-18T06:59:52.434Z,84352
2017-07-18T07:00:33.062Z,84896
2017-07-18T07:01:13.672Z,83584
2017-07-18T07:01:54.266Z,82400
2017-07-18T07:02:34.864Z,80352
2017-07-18T07:03:15.461Z,79616
2017-07-18T07:03:56.063Z,78976
2017-07-18T07:04:36.688Z,78048
2017-07-18T07:05:17.268Z,78848
2017-07-18T07:05:57.895Z,81280
2017-07-18T07:06:38.476Z,83200
2017-07-18T07:07:19.075Z,82944
2017-07-18T07:07:59.726Z,82304
2017-07-18T07:08:40.284Z,80544
2017-07-18T07:09:20.865Z,80640
2017-07-18T07:10:01.482Z,81216
2017-07-18T07:10:42.059Z,79936
2017-07-18T07:11:22.635Z,78944
2017-07-18T07:12:03.278Z,79264
2017-07-18T07:12:43.884Z,80224
2017-07-18T07:13:24.485Z,80480
2017-07-18T07:14:05.071Z,79968
2017-07-18T07:14:45.645Z,79744
2017-07-18T07:15:26.335Z,78880
2017-07-18T07:16:06.926Z,80288
2017-07-18T07:16:47.540Z,81632
2017-07-18T07:17:28.132Z,81312
2017-07-18T07:18:08.717Z,82112
2017-07-18T07:18:49.303Z,81408
2017-07-18T07:19:29.904Z,80576
2017-07-18T07:20:10.529Z,82272
2017-07-18T07:20:51.099Z,83552
2017-07-18T07:21:31.705Z,85536
2017-07-18T07:22:12.321Z,82816
2017-07-18T07:22:52.944Z,80928
2017-07-18T07:23:33.519Z,82080
2017-07-18T07:24:14.099Z,83264
2017-07-18T07:24:54.721Z,80864
2017-07-18T07:25:35.342Z,81408
2017-07-18T07:26:15.945Z,82336
2017-07-18T07:26:56.537Z,83168
2017-07-18T07:27:37.129Z,84032
2017-07-18T07:28:17.749Z,83456
2017-07-18T07:28:58.404Z,81280
2017-07-18T07:29:39.009Z,80672
2017-07-18T07:30:19.593Z,80672
2017-07-18T07:31:00.204Z,81600
2017-07-18T07:31:40.802Z,83808
2017-07-18T07:32:21.401Z,83232
2017-07-18T07:33:01.995Z,82464
2017-07-18T07:33:42.576Z,80576
2017-07-18T07:34:23.150Z,79360
2017-07-18T07:35:03.765Z,76000
2017-07-18T07:35:44.378Z,70400
2017-07-18T07:36:24.963Z,67680
2017-07-18T07:37:05.540Z,67040
2017-07-18T07:37:46.490Z,60960
2017-07-18T07:38:26.904Z,75584
2017-07-18T07:39:07.505Z,68544
2017-07-18T07:39:48.172Z,62432
2017-07-18T07:40:28.786Z,55328
2017-07-18T07:41:09.364Z,48256
2017-07-18T07:41:49.936Z,33952
2017-07-18T07:42:30.564Z,28448
2017-07-18T07:43:11.144Z,35616
2017-07-18T07:43:51.726Z,30144
2017-07-18T07:44:32.322Z,31552
2017-07-18T07:45:12.913Z,34464
2017-07-18T07:45:53.500Z,40544
2017-07-18T07:46:34.086Z,43968
2017-07-18T07:47:14.675Z,35136
2017-07-18T07:47:55.266Z,36576
2017-07-18T07:48:35.888Z,33504
2017-07-18T07:49:16.459Z,62944
2017-07-18T07:49:57.031Z,60960
2017-07-18T07:50:37.604Z,82848
2017-07-18T07:51:18.195Z,88928
2017-07-18T07:51:58.786Z,90336
2017-07-18T07:52:39.373Z,88512
2017-07-18T07:53:19.946Z,84320
2017-07-18T07:54:00.514Z,85184
2017-07-18T07:54:41.179Z,88192
2017-07-18T07:55:21.713Z,91904
2017-07-18T07:56:02.304Z,88928
2017-07-18T07:56:42.914Z,90816
2017-07-18T07:57:23.504Z,90336
2017-07-18T07:58:04.065Z,94080
2017-07-18T07:58:44.664Z,95072
2017-07-18T07:59:25.264Z,90656
2017-07-18T08:00:05.849Z,94400
2017-07-18T08:00:46.456Z,84192
2017-07-18T08:01:27.059Z,90304
2017-07-18T08:02:07.657Z,69280
2017-07-18T08:02:48.254Z,76800
2017-07-18T08:03:28.847Z,75584
2017-07-18T08:04:09.425Z,61920
2017-07-18T08:04:50.012Z,92800
2017-07-18T08:05:30.615Z,93568
2017-07-18T08:06:11.216Z,97408
2017-07-18T08:06:51.817Z,85952
2017-07-18T08:07:32.414Z,59808
2017-07-18T08:08:12.995Z,35072
2017-07-18T08:08:53.561Z,24320
2017-07-18T08:09:34.232Z,22880
2017-07-18T08:10:14.787Z,21632
2017-07-18T08:10:55.370Z,20512
2017-07-18T08:11:35.969Z,19648
2017-07-18T08:12:19.802Z,19072
2017-07-18T08:13:00.390Z,18720
2017-07-18T08:13:40.972Z,18368
2017-07-18T08:14:21.550Z,17984
2017-07-18T08:15:02.158Z,17664
2017-07-18T08:15:42.760Z,17184
2017-07-18T08:16:23.368Z,16992
2017-07-18T08:17:03.935Z,16800
2017-07-18T08:17:44.525Z,16448
2017-07-18T08:18:25.131Z,16320
2017-07-18T08:19:05.727Z,13436
2017-07-18T08:19:46.343Z,14852
2017-07-18T08:20:26.913Z,15220
2017-07-18T08:21:07.511Z,14924
2017-07-18T08:21:48.099Z,14668
2017-07-18T08:22:28.674Z,14500
2017-07-18T08:23:15.772Z,14392
2017-07-18T08:23:56.399Z,14616
2017-07-18T08:24:37.006Z,14068
2017-07-18T08:25:17.624Z,13584
2017-07-18T08:25:58.268Z,8604
2017-07-18T08:26:38.856Z,13296
2017-07-18T08:27:19.414Z,13088
2017-07-18T08:27:59.995Z,13532
2017-07-18T08:28:40.592Z,14004
2017-07-18T08:29:21.190Z,14100
2017-07-18T08:30:01.763Z,14316
2017-07-18T08:30:42.351Z,9704
2017-07-18T08:31:22.957Z,13292
2017-07-18T08:32:03.560Z,10152
2017-07-18T08:32:44.121Z,11164
2017-07-18T08:33:24.705Z,10716
2017-07-18T08:34:05.337Z,10252
2017-07-18T08:34:45.926Z,9620
2017-07-18T08:35:26.511Z,9240
2017-07-18T08:36:07.165Z,8748
2017-07-18T08:36:47.805Z,11368
2017-07-18T08:37:28.382Z,8416
2017-07-18T08:38:08.962Z,8620
2017-07-18T08:38:49.564Z,8012
2017-07-18T08:39:30.133Z,8580
2017-07-18T08:40:10.719Z,11796
2017-07-18T08:40:51.325Z,12088
2017-07-18T08:41:31.905Z,11344
2017-07-18T08:42:12.477Z,10032
2017-07-18T08:42:53.270Z,12364
2017-07-18T08:43:33.858Z,10000
2017-07-18T08:44:14.452Z,10004
2017-07-18T08:44:55.033Z,9836
2017-07-18T08:45:35.637Z,9044
2017-07-18T08:46:16.236Z,8768
2017-07-18T08:46:56.813Z,10148
2017-07-18T08:47:37.430Z,9028
2017-07-18T08:48:18.022Z,9568
2017-07-18T08:48:58.660Z,10824
2017-07-18T08:49:39.252Z,12000
2017-07-18T08:50:19.839Z,11148
2017-07-18T08:51:00.421Z,9172
2017-07-18T08:51:40.998Z,9544
2017-07-18T08:52:21.567Z,8220
2017-07-18T08:53:02.144Z,8060
2017-07-18T08:53:42.706Z,7648
2017-07-18T08:54:23.271Z,7892
2017-07-18T08:55:03.855Z,8092
2017-07-18T08:55:44.460Z,8540
2017-07-18T08:56:25.049Z,9132
2017-07-18T08:57:05.657Z,8788
2017-07-18T08:57:46.287Z,9520
2017-07-18T08:58:26.847Z,10392
2017-07-18T08:59:07.430Z,10456
2017-07-18T08:59:48.008Z,10464
2017-07-18T09:00:28.621Z,10516
2017-07-18T09:01:09.171Z,10140
2017-07-18T09:01:49.789Z,9952
2017-07-18T09:02:30.392Z,9604
2017-07-18T09:03:10.991Z,10148
2017-07-18T09:03:51.684Z,10664
2017-07-18T09:04:32.256Z,10704
2017-07-18T09:05:12.866Z,10636
2017-07-18T09:05:53.455Z,10604
2017-07-18T09:06:34.028Z,10448
2017-07-18T09:07:14.598Z,10436
2017-07-18T09:07:55.249Z,10368
2017-07-18T09:08:35.825Z,10224
2017-07-18T09:09:16.428Z,10172
2017-07-18T09:09:57.062Z,10112
2017-07-18T09:10:37.645Z,10388
2017-07-18T09:11:18.270Z,10452
2017-07-18T09:11:58.819Z,10268
2017-07-18T09:12:39.641Z,9892
2017-07-18T09:13:20.224Z,9524